sensor_id;sensor_type;location;lat;lon;timestamp;pressure;altitude;pressure_sealevel;temperature;humidity
7990;BME280;4040;42.848;23.034;2022-08-30T00:09:44;95110.38;;;17.84;100.00
7990;BME280;4040;42.848;23.034;2022-08-30T00:15:33;95092.69;;;18.01;100.00
7990;BME280;4040;42.848;23.034;2022-08-30T00:21:22;95094.13;;;17.93;100.00
7990;BME280;4040;42.848;23.034;2022-08-30T00:27:12;95091.75;;;18.16;100.00
7990;BME280;4040;42.848;23.034;2022-08-30T00:33:00;95095.25;;;17.83;100.00
7990;BME280;4040;42.848;23.034;2022-08-30T00:38:49;95091.47;;;17.68;100.00
7990;BME280;4040;42.848;23.034;2022-08-30T00:44:40;95100.28;;;17.72;100.00
7990;BME280;4040;42.848;23.034;2022-08-30T00:50:33;95098.97;;;17.64;100.00
7990;BME280;4040;42.848;23.034;2022-08-30T00:56:24;95088.66;;;17.47;100.00
7990;BME280;4040;42.848;23.034;2022-08-30T01:02:17;95104.13;;;17.50;100.00
7990;BME280;4040;42.848;23.034;2022-08-30T01:12:31;95108.63;;;17.44;100.00
7990;BME280;4040;42.848;23.034;2022-08-30T01:18:22;95111.34;;;17.44;100.00
7990;BME280;4040;42.848;23.034;2022-08-30T01:24:13;95102.97;;;17.38;100.00
7990;BME280;4040;42.848;23.034;2022-08-30T01:30:03;95107.94;;;17.27;100.00
7990;BME280;4040;42.848;23.034;2022-08-30T01:35:55;95109.78;;;17.18;100.00
7990;BME280;4040;42.848;23.034;2022-08-30T01:41:46;95111.41;;;17.15;100.00
7990;BME280;4040;42.848;23.034;2022-08-30T01:47:35;95107.06;;;17.05;100.00
7990;BME280;4040;42.848;23.034;2022-08-30T01:53:23;95095.00;;;17.06;100.00
7990;BME280;4040;42.848;23.034;2022-08-30T01:59:14;95100.09;;;17.04;100.00
7990;BME280;4040;42.848;23.034;2022-08-30T02:05:03;95069.84;;;16.77;100.00
7990;BME280;4040;42.848;23.034;2022-08-30T02:15:15;95089.00;;;17.11;100.00
7990;BME280;4040;42.848;23.034;2022-08-30T02:21:05;95090.94;;;17.23;100.00
7990;BME280;4040;42.848;23.034;2022-08-30T02:26:53;95089.09;;;17.45;100.00
7990;BME280;4040;42.848;23.034;2022-08-30T02:32:44;95098.38;;;17.23;100.00
7990;BME280;4040;42.848;23.034;2022-08-30T02:38:33;95086.16;;;17.02;100.00
7990;BME280;4040;42.848;23.034;2022-08-30T02:44:21;95084.97;;;17.03;100.00
7990;BME280;4040;42.848;23.034;2022-08-30T02:50:12;95085.41;;;17.02;100.00
7990;BME280;4040;42.848;23.034;2022-08-30T02:56:02;95081.16;;;16.88;100.00
7990;BME280;4040;42.848;23.034;2022-08-30T03:01:51;95081.06;;;16.92;100.00
7990;BME280;4040;42.848;23.034;2022-08-30T03:07:41;95080.06;;;16.98;100.00
7990;BME280;4040;42.848;23.034;2022-08-30T03:17:54;95086.38;;;16.95;100.00
7990;BME280;4040;42.848;23.034;2022-08-30T03:23:44;95088.00;;;16.93;100.00
7990;BME280;4040;42.848;23.034;2022-08-30T03:29:33;95081.34;;;16.81;100.00
7990;BME280;4040;42.848;23.034;2022-08-30T03:35:22;95085.63;;;16.95;100.00
7990;BME280;4040;42.848;23.034;2022-08-30T03:41:13;95088.44;;;16.91;100.00
7990;BME280;4040;42.848;23.034;2022-08-30T03:47:04;95089.75;;;16.87;100.00
7990;BME280;4040;42.848;23.034;2022-08-30T03:52:53;95082.47;;;16.96;100.00
7990;BME280;4040;42.848;23.034;2022-08-30T03:58:43;95093.22;;;17.00;100.00
7990;BME280;4040;42.848;23.034;2022-08-30T04:04:32;95093.34;;;16.96;100.00
7990;BME280;4040;42.848;23.034;2022-08-30T04:10:21;95105.53;;;17.04;100.00
7990;BME280;4040;42.848;23.034;2022-08-30T04:16:42;95108.16;;;17.20;100.00
7990;BME280;4040;42.848;23.034;2022-08-30T04:22:30;95102.72;;;17.20;100.00
7990;BME280;4040;42.848;23.034;2022-08-30T04:28:19;95104.66;;;17.32;100.00
7990;BME280;4040;42.848;23.034;2022-08-30T04:34:10;95107.69;;;17.34;100.00
7990;BME280;4040;42.848;23.034;2022-08-30T04:40:00;95111.03;;;17.42;100.00
7990;BME280;4040;42.848;23.034;2022-08-30T04:45:49;95121.03;;;17.45;100.00
7990;BME280;4040;42.848;23.034;2022-08-30T04:51:39;95123.66;;;17.48;100.00
7990;BME280;4040;42.848;23.034;2022-08-30T04:57:28;95126.69;;;17.63;100.00
7990;BME280;4040;42.848;23.034;2022-08-30T05:03:17;95123.81;;;17.66;100.00
7990;BME280;4040;42.848;23.034;2022-08-30T05:09:07;95118.75;;;17.90;100.00
7990;BME280;4040;42.848;23.034;2022-08-30T05:14:37;95123.13;;;17.87;100.00
7990;BME280;4040;42.848;23.034;2022-08-30T05:20:25;95123.13;;;17.87;100.00
7990;BME280;4040;42.848;23.034;2022-08-30T05:26:17;95080.63;;;17.77;100.00
7990;BME280;4040;42.848;23.034;2022-08-30T05:32:07;95131.69;;;17.98;100.00
7990;BME280;4040;42.848;23.034;2022-08-30T05:37:56;95144.81;;;17.91;100.00
7990;BME280;4040;42.848;23.034;2022-08-30T05:43:47;95147.84;;;17.92;100.00
7990;BME280;4040;42.848;23.034;2022-08-30T05:49:36;95151.31;;;18.05;100.00
7990;BME280;4040;42.848;23.034;2022-08-30T05:55:25;95151.97;;;17.97;100.00
7990;BME280;4040;42.848;23.034;2022-08-30T06:01:23;95150.72;;;18.23;100.00
7990;BME280;4040;42.848;23.034;2022-08-30T06:07:12;95159.00;;;18.53;100.00
7990;BME280;4040;42.848;23.034;2022-08-30T06:13:01;95164.38;;;18.78;100.00
7990;BME280;4040;42.848;23.034;2022-08-30T06:23:13;95166.63;;;18.80;100.00
7990;BME280;4040;42.848;23.034;2022-08-30T06:29:03;95172.84;;;19.02;100.00
7990;BME280;4040;42.848;23.034;2022-08-30T06:34:52;95173.41;;;18.97;100.00
7990;BME280;4040;42.848;23.034;2022-08-30T06:40:42;95169.81;;;19.21;100.00
7990;BME280;4040;42.848;23.034;2022-08-30T06:46:33;95174.59;;;19.39;100.00
7990;BME280;4040;42.848;23.034;2022-08-30T06:52:22;95170.38;;;19.47;100.00
7990;BME280;4040;42.848;23.034;2022-08-30T06:58:12;95150.22;;;19.23;100.00
7990;BME280;4040;42.848;23.034;2022-08-30T07:04:01;95172.16;;;19.41;100.00
7990;BME280;4040;42.848;23.034;2022-08-30T07:09:50;95175.63;;;19.11;100.00
7990;BME280;4040;42.848;23.034;2022-08-30T07:15:42;95177.88;;;19.34;100.00
7990;BME280;4040;42.848;23.034;2022-08-30T07:25:53;95196.53;;;19.05;100.00
7990;BME280;4040;42.848;23.034;2022-08-30T07:31:43;95190.13;;;19.20;100.00
7990;BME280;4040;42.848;23.034;2022-08-30T07:37:32;95192.25;;;19.47;100.00
7990;BME280;4040;42.848;23.034;2022-08-30T07:43:21;95191.13;;;19.75;100.00
7990;BME280;4040;42.848;23.034;2022-08-30T07:49:11;95200.03;;;19.27;100.00
7990;BME280;4040;42.848;23.034;2022-08-30T07:55:00;95205.00;;;19.50;100.00
7990;BME280;4040;42.848;23.034;2022-08-30T08:00:48;95208.13;;;19.70;100.00
7990;BME280;4040;42.848;23.034;2022-08-30T08:06:39;95201.16;;;19.78;100.00
7990;BME280;4040;42.848;23.034;2022-08-30T08:12:28;95203.56;;;19.76;100.00
7990;BME280;4040;42.848;23.034;2022-08-30T08:18:16;95205.16;;;19.95;100.00
7990;BME280;4040;42.848;23.034;2022-08-30T08:28:29;95203.28;;;20.31;100.00
7990;BME280;4040;42.848;23.034;2022-08-30T08:34:17;95212.81;;;20.18;100.00
7990;BME280;4040;42.848;23.034;2022-08-30T08:40:14;95207.56;;;20.50;100.00
7990;BME280;4040;42.848;23.034;2022-08-30T08:46:10;95224.75;;;20.60;100.00
7990;BME280;4040;42.848;23.034;2022-08-30T08:52:03;95228.25;;;20.60;100.00
7990;BME280;4040;42.848;23.034;2022-08-30T08:58:18;95229.03;;;20.96;100.00
7990;BME280;4040;42.848;23.034;2022-08-30T09:04:14;95209.19;;;21.37;100.00
7990;BME280;4040;42.848;23.034;2022-08-30T09:10:04;95218.47;;;21.40;100.00
7990;BME280;4040;42.848;23.034;2022-08-30T09:15:56;95207.94;;;21.65;100.00
7990;BME280;4040;42.848;23.034;2022-08-30T09:21:56;95201.56;;;21.41;100.00
7990;BME280;4040;42.848;23.034;2022-08-30T09:27:48;95204.53;;;21.20;100.00
7990;BME280;4040;42.848;23.034;2022-08-30T09:33:38;95199.34;;;21.13;100.00
7990;BME280;4040;42.848;23.034;2022-08-30T09:39:41;95184.06;;;21.89;100.00
7990;BME280;4040;42.848;23.034;2022-08-30T09:46:05;95177.78;;;22.21;100.00
7990;BME280;4040;42.848;23.034;2022-08-30T09:52:05;95139.25;;;22.39;100.00
7990;BME280;4040;42.848;23.034;2022-08-30T09:58:01;95146.34;;;22.84;100.00
7990;BME280;4040;42.848;23.034;2022-08-30T10:04:01;95135.88;;;23.11;100.00
7990;BME280;4040;42.848;23.034;2022-08-30T10:09:58;95118.34;;;23.23;100.00
7990;BME280;4040;42.848;23.034;2022-08-30T10:15:57;95139.94;;;23.30;100.00
7990;BME280;4040;42.848;23.034;2022-08-30T10:21:52;95138.59;;;22.82;100.00
7990;BME280;4040;42.848;23.034;2022-08-30T10:27:49;95143.47;;;22.49;100.00
7990;BME280;4040;42.848;23.034;2022-08-30T10:33:47;95141.09;;;22.33;100.00
7990;BME280;4040;42.848;23.034;2022-08-30T10:39:42;95142.28;;;22.41;100.00
7990;BME280;4040;42.848;23.034;2022-08-30T10:45:36;95145.31;;;22.43;100.00
7990;BME280;4040;42.848;23.034;2022-08-30T10:51:32;95144.59;;;22.57;100.00
7990;BME280;4040;42.848;23.034;2022-08-30T10:57:24;95136.88;;;22.70;100.00
7990;BME280;4040;42.848;23.034;2022-08-30T11:03:42;95132.34;;;23.54;100.00
7990;BME280;4040;42.848;23.034;2022-08-30T11:10:03;95124.63;;;24.07;100.00
7990;BME280;4040;42.848;23.034;2022-08-30T11:16:00;95123.00;;;24.15;100.00
7990;BME280;4040;42.848;23.034;2022-08-30T11:21:50;95102.06;;;24.43;100.00
7990;BME280;4040;42.848;23.034;2022-08-30T11:27:48;95087.88;;;24.50;100.00
7990;BME280;4040;42.848;23.034;2022-08-30T11:33:43;95088.28;;;24.63;100.00
7990;BME280;4040;42.848;23.034;2022-08-30T11:39:54;95087.66;;;24.99;100.00
7990;BME280;4040;42.848;23.034;2022-08-30T11:45:47;95091.09;;;26.29;100.00
7990;BME280;4040;42.848;23.034;2022-08-30T11:51:59;95094.00;;;26.67;100.00
7990;BME280;4040;42.848;23.034;2022-08-30T11:57:58;95088.06;;;27.62;100.00
7990;BME280;4040;42.848;23.034;2022-08-30T12:03:57;95076.63;;;28.20;100.00
7990;BME280;4040;42.848;23.034;2022-08-30T12:10:02;95070.19;;;28.01;100.00
7990;BME280;4040;42.848;23.034;2022-08-30T12:15:56;95063.16;;;27.78;95.28
7990;BME280;4040;42.848;23.034;2022-08-30T12:21:55;95055.66;;;27.51;87.36
7990;BME280;4040;42.848;23.034;2022-08-30T12:27:45;95043.03;;;26.95;84.98
7990;BME280;4040;42.848;23.034;2022-08-30T12:33:39;95041.03;;;27.01;90.94
7990;BME280;4040;42.848;23.034;2022-08-30T12:39:32;95030.91;;;27.97;100.00
7990;BME280;4040;42.848;23.034;2022-08-30T12:45:24;95032.19;;;27.91;93.57
7990;BME280;4040;42.848;23.034;2022-08-30T12:51:28;95014.59;;;27.66;96.55
7990;BME280;4040;42.848;23.034;2022-08-30T12:57:37;95017.84;;;27.92;83.83
7990;BME280;4040;42.848;23.034;2022-08-30T13:03:31;95008.97;;;28.05;85.24
7990;BME280;4040;42.848;23.034;2022-08-30T13:09:23;95008.72;;;28.08;83.18
7990;BME280;4040;42.848;23.034;2022-08-30T13:15:18;95012.75;;;28.07;91.64
7990;BME280;4040;42.848;23.034;2022-08-30T13:21:26;95007.63;;;28.28;84.96
7990;BME280;4040;42.848;23.034;2022-08-30T13:31:19;94997.69;;;27.97;97.50
7990;BME280;4040;42.848;23.034;2022-08-30T13:37:09;94989.25;;;27.40;93.51
7990;BME280;4040;42.848;23.034;2022-08-30T13:43:00;94982.97;;;27.07;89.69
7990;BME280;4040;42.848;23.034;2022-08-30T13:48:55;94981.72;;;27.02;93.83
7990;BME280;4040;42.848;23.034;2022-08-30T13:54:46;94970.19;;;26.87;85.55
7990;BME280;4040;42.848;23.034;2022-08-30T14:00:35;94969.66;;;26.61;87.25
7990;BME280;4040;42.848;23.034;2022-08-30T14:06:25;94963.88;;;26.54;87.27
7990;BME280;4040;42.848;23.034;2022-08-30T14:12:13;94949.00;;;26.40;85.33
7990;BME280;4040;42.848;23.034;2022-08-30T14:18:03;94943.00;;;26.37;83.50
7990;BME280;4040;42.848;23.034;2022-08-30T14:23:54;94935.94;;;26.25;87.12
7990;BME280;4040;42.848;23.034;2022-08-30T14:34:06;94933.91;;;26.20;87.88
7990;BME280;4040;42.848;23.034;2022-08-30T14:39:56;94928.38;;;26.20;100.00
7990;BME280;4040;42.848;23.034;2022-08-30T14:45:45;94927.88;;;26.16;98.10
7990;BME280;4040;42.848;23.034;2022-08-30T14:51:34;94928.38;;;26.09;91.24
7990;BME280;4040;42.848;23.034;2022-08-30T14:57:24;94928.84;;;26.02;100.00
7990;BME280;4040;42.848;23.034;2022-08-30T15:03:13;94917.56;;;26.11;95.10
7990;BME280;4040;42.848;23.034;2022-08-30T15:09:03;94914.06;;;26.10;93.39
7990;BME280;4040;42.848;23.034;2022-08-30T15:14:54;94910.03;;;26.06;95.91
7990;BME280;4040;42.848;23.034;2022-08-30T15:20:46;94907.06;;;26.15;93.94
7990;BME280;4040;42.848;23.034;2022-08-30T15:26:35;94915.03;;;26.07;94.49
7990;BME280;4040;42.848;23.034;2022-08-30T15:36:50;94892.44;;;25.92;100.00
7990;BME280;4040;42.848;23.034;2022-08-30T15:42:39;94899.66;;;25.79;100.00
7990;BME280;4040;42.848;23.034;2022-08-30T15:48:28;94894.88;;;25.68;100.00
7990;BME280;4040;42.848;23.034;2022-08-30T15:54:21;94900.34;;;25.57;100.00
7990;BME280;4040;42.848;23.034;2022-08-30T16:00:12;94898.44;;;25.32;100.00
7990;BME280;4040;42.848;23.034;2022-08-30T16:06:01;94890.66;;;25.25;100.00
7990;BME280;4040;42.848;23.034;2022-08-30T16:11:51;94903.06;;;25.04;100.00
7990;BME280;4040;42.848;23.034;2022-08-30T16:17:40;94891.66;;;24.86;100.00
7990;BME280;4040;42.848;23.034;2022-08-30T16:23:29;94908.91;;;24.81;100.00
7990;BME280;4040;42.848;23.034;2022-08-30T16:29:19;94912.44;;;24.56;100.00
7990;BME280;4040;42.848;23.034;2022-08-30T16:39:30;94907.25;;;24.07;100.00
7990;BME280;4040;42.848;23.034;2022-08-30T16:45:20;94916.06;;;23.71;100.00
7990;BME280;4040;42.848;23.034;2022-08-30T16:51:11;94922.28;;;23.46;100.00
7990;BME280;4040;42.848;23.034;2022-08-30T16:57:01;94928.41;;;23.01;100.00
7990;BME280;4040;42.848;23.034;2022-08-30T17:02:53;94936.44;;;22.41;100.00
7990;BME280;4040;42.848;23.034;2022-08-30T17:08:42;94942.66;;;21.98;100.00
7990;BME280;4040;42.848;23.034;2022-08-30T17:14:31;94950.88;;;21.98;100.00
7990;BME280;4040;42.848;23.034;2022-08-30T17:20:21;94955.78;;;21.80;100.00
7990;BME280;4040;42.848;23.034;2022-08-30T17:26:12;94960.59;;;21.61;100.00
7990;BME280;4040;42.848;23.034;2022-08-30T17:32:01;94968.22;;;21.66;100.00
7990;BME280;4040;42.848;23.034;2022-08-30T17:42:14;94987.81;;;20.85;100.00
7990;BME280;4040;42.848;23.034;2022-08-30T17:48:03;94986.75;;;21.15;100.00
7990;BME280;4040;42.848;23.034;2022-08-30T17:53:53;95008.50;;;20.86;100.00
7990;BME280;4040;42.848;23.034;2022-08-30T17:59:43;95007.94;;;20.65;100.00
7990;BME280;4040;42.848;23.034;2022-08-30T18:05:32;95017.97;;;20.59;100.00
7990;BME280;4040;42.848;23.034;2022-08-30T18:11:21;95019.22;;;20.49;100.00
7990;BME280;4040;42.848;23.034;2022-08-30T18:17:11;95024.03;;;20.72;100.00
7990;BME280;4040;42.848;23.034;2022-08-30T18:23:00;95020.09;;;20.64;100.00
7990;BME280;4040;42.848;23.034;2022-08-30T18:28:49;95012.22;;;20.48;100.00
7990;BME280;4040;42.848;23.034;2022-08-30T18:34:39;95014.69;;;20.37;100.00
7990;BME280;4040;42.848;23.034;2022-08-30T18:44:50;95023.81;;;19.89;100.00
7990;BME280;4040;42.848;23.034;2022-08-30T18:50:41;95019.25;;;19.95;100.00
7990;BME280;4040;42.848;23.034;2022-08-30T18:56:30;95021.34;;;19.64;100.00
7990;BME280;4040;42.848;23.034;2022-08-30T19:02:19;95031.56;;;19.15;100.00
7990;BME280;4040;42.848;23.034;2022-08-30T19:08:10;95040.69;;;19.21;100.00
7990;BME280;4040;42.848;23.034;2022-08-30T19:13:59;95028.59;;;19.31;100.00
7990;BME280;4040;42.848;23.034;2022-08-30T19:19:48;95042.63;;;19.60;100.00
7990;BME280;4040;42.848;23.034;2022-08-30T19:25:40;95043.13;;;19.19;100.00
7990;BME280;4040;42.848;23.034;2022-08-30T19:31:28;95034.31;;;19.24;100.00
7990;BME280;4040;42.848;23.034;2022-08-30T19:36:58;95029.38;;;19.49;100.00
7990;BME280;4040;42.848;23.034;2022-08-30T19:47:01;95026.94;;;19.42;100.00
7990;BME280;4040;42.848;23.034;2022-08-30T19:52:51;95032.88;;;19.50;100.00
7990;BME280;4040;42.848;23.034;2022-08-30T19:58:41;95031.69;;;19.60;100.00
7990;BME280;4040;42.848;23.034;2022-08-30T20:04:31;95027.13;;;19.48;100.00
7990;BME280;4040;42.848;23.034;2022-08-30T20:10:20;95023.00;;;19.43;100.00
7990;BME280;4040;42.848;23.034;2022-08-30T20:16:10;95020.25;;;19.34;100.00
7990;BME280;4040;42.848;23.034;2022-08-30T20:22:00;95028.59;;;19.40;100.00
7990;BME280;4040;42.848;23.034;2022-08-30T20:27:49;95031.66;;;19.42;100.00
7990;BME280;4040;42.848;23.034;2022-08-30T20:33:38;95021.75;;;19.35;100.00
7990;BME280;4040;42.848;23.034;2022-08-30T20:39:28;95019.16;;;19.23;100.00
7990;BME280;4040;42.848;23.034;2022-08-30T20:49:18;95015.84;;;18.88;100.00
7990;BME280;4040;42.848;23.034;2022-08-30T20:55:11;95017.13;;;18.75;100.00
7990;BME280;4040;42.848;23.034;2022-08-30T21:00:59;95013.75;;;18.62;100.00
7990;BME280;4040;42.848;23.034;2022-08-30T21:06:48;95014.63;;;18.59;100.00
7990;BME280;4040;42.848;23.034;2022-08-30T21:12:38;95025.72;;;18.34;100.00
7990;BME280;4040;42.848;23.034;2022-08-30T21:18:29;95021.25;;;18.27;100.00
7990;BME280;4040;42.848;23.034;2022-08-30T21:24:18;95017.69;;;18.18;100.00
7990;BME280;4040;42.848;23.034;2022-08-30T21:30:10;95016.47;;;18.19;100.00
7990;BME280;4040;42.848;23.034;2022-08-30T21:35:59;95019.47;;;17.91;100.00
7990;BME280;4040;42.848;23.034;2022-08-30T21:42:06;95024.44;;;17.71;100.00
7990;BME280;4040;42.848;23.034;2022-08-30T21:52:18;95032.88;;;17.64;100.00
7990;BME280;4040;42.848;23.034;2022-08-30T21:58:06;95023.38;;;17.68;100.00
7990;BME280;4040;42.848;23.034;2022-08-30T22:08:32;95029.28;;;17.54;100.00
7990;BME280;4040;42.848;23.034;2022-08-30T22:14:21;95028.16;;;17.64;100.00
7990;BME280;4040;42.848;23.034;2022-08-30T22:20:10;95010.94;;;17.67;100.00
7990;BME280;4040;42.848;23.034;2022-08-30T22:26:01;95021.50;;;17.65;100.00
7990;BME280;4040;42.848;23.034;2022-08-30T22:31:49;95012.72;;;17.61;100.00
7990;BME280;4040;42.848;23.034;2022-08-30T22:37:38;95014.84;;;17.66;100.00
7990;BME280;4040;42.848;23.034;2022-08-30T22:43:28;95023.44;;;17.77;100.00
7990;BME280;4040;42.848;23.034;2022-08-30T22:49:17;95012.47;;;17.68;100.00
7990;BME280;4040;42.848;23.034;2022-08-30T22:55:06;95019.56;;;17.66;100.00
7990;BME280;4040;42.848;23.034;2022-08-30T23:00:57;95009.00;;;17.55;100.00
7990;BME280;4040;42.848;23.034;2022-08-30T23:03:24;95014.16;;;17.53;100.00
7990;BME280;4040;42.848;23.034;2022-08-30T23:09:12;95008.69;;;17.53;100.00
7990;BME280;4040;42.848;23.034;2022-08-30T23:15:02;95011.41;;;17.53;100.00
7990;BME280;4040;42.848;23.034;2022-08-30T23:20:52;95006.59;;;17.57;100.00
7990;BME280;4040;42.848;23.034;2022-08-30T23:26:42;95000.53;;;17.53;100.00
7990;BME280;4040;42.848;23.034;2022-08-30T23:32:48;94999.50;;;17.38;100.00
7990;BME280;4040;42.848;23.034;2022-08-30T23:38:56;95003.31;;;17.28;100.00
7990;BME280;4040;42.848;23.034;2022-08-30T23:45:02;94998.66;;;17.16;100.00
7990;BME280;4040;42.848;23.034;2022-08-30T23:51:09;94986.47;;;17.08;100.00
7990;BME280;4040;42.848;23.034;2022-08-30T23:57:16;94991.13;;;17.08;100.00
